Time;durP1;ratioP1;P1;durP2;ratioP2;P2;SDS_P1;SDS_P2;PMS_P1;PMS_P2;Temp;Humidity;BMP_temperature;BMP_pressure;BME280_temperature;BME280_humidity;BME280_pressure;Samples;Min_cycle;Max_cycle;Signal;HPM_P1;HPM_P2
2021/04/04 00:01:22;;;;;;;;;;;4.70;84.10;;;;;;5088338;28;19920;-71
2021/04/04 00:03:50;;;;;;;;;;;4.60;84.80;;;;;;5093378;28;20003;-71
2021/04/04 00:06:16;;;;;;;;;;;4.60;84.30;;;;;;5094148;28;19927;-71
2021/04/04 00:08:41;;;;;;;;;;;4.60;85.80;;;;;;5091855;28;19912;-70
2021/04/04 00:11:07;;;;;;;;;;;4.60;85.30;;;;;;5092983;28;19916;-71
2021/04/04 00:13:32;;;;;;;;;;;4.60;87.10;;;;;;5092694;28;20007;-71
2021/04/04 00:16:01;;;;;;;;;;;4.60;85.90;;;;;;5090637;28;19935;-70
2021/04/04 00:18:28;;;;;;;;;;;4.50;85.40;;;;;;5092612;28;20222;-71
2021/04/04 00:20:54;;;;;;;;;;;4.60;85.40;;;;;;5091194;28;19913;-71
2021/04/04 00:23:19;;;;;;;;;;;4.50;86.70;;;;;;5091138;28;19931;-71
2021/04/04 00:25:45;;;;;;;;;;;4.40;87.90;;;;;;5087539;28;20003;-72
2021/04/04 00:28:13;;;;;;;;;;;4.40;87.30;;;;;;5076179;28;19943;-71
2021/04/04 00:30:40;;;;;;;;;;;4.40;87.60;;;;;;5094810;28;19931;-71
2021/04/04 00:33:08;;;;;;;;;;;4.40;87.40;;;;;;5094899;28;19935;-71
2021/04/04 00:35:34;;;;;;;;;;;4.40;87.20;;;;;;5090975;28;19923;-71
2021/04/04 00:38:02;;;;;;;;;;;4.40;88.50;;;;;;5094419;28;19911;-70
2021/04/04 00:40:28;;;;;;;;;;;4.30;87.80;;;;;;5090912;28;19912;-71
2021/04/04 00:42:54;;;;;;;;;;;4.30;88.30;;;;;;5091581;28;19962;-71
2021/04/04 00:45:21;;;;;;;;;;;4.40;88.70;;;;;;5088216;28;20298;-71
2021/04/04 00:47:48;;;;;;;;;;;4.40;90.50;;;;;;5090571;28;19912;-71
2021/04/04 00:50:17;;;;;;;;;;;4.40;90.40;;;;;;5085588;28;20655;-71
2021/04/04 00:52:45;;;;;;;;;;;4.50;90.80;;;;;;5089464;28;19912;-71
2021/04/04 00:55:11;;;;;;;;;;;4.50;90.70;;;;;;5089781;28;19958;-71
2021/04/04 00:57:37;;;;;;;;;;;4.60;90.60;;;;;;5089379;28;20340;-71
2021/04/04 01:00:08;;;;;;;;;;;4.60;90.20;;;;;;5093829;28;19927;-70
2021/04/04 01:02:34;;;;;;;;;;;4.60;89.30;;;;;;5088641;28;19924;-71
2021/04/04 01:05:01;;;;;;;;;;;4.70;89.70;;;;;;5090872;28;19912;-71
2021/04/04 01:07:27;;;;;;;;;;;4.70;89.80;;;;;;5090743;28;19928;-70
2021/04/04 01:09:53;;;;;;;;;;;4.70;89.80;;;;;;5089895;28;20356;-71
2021/04/04 01:12:21;;;;;;;;;;;4.80;90.00;;;;;;5089068;28;20257;-71
2021/04/04 01:14:52;;;;;;;;;;;4.80;90.00;;;;;;5090358;27;20005;-69
2021/04/04 01:17:18;;;;;;;;;;;4.90;88.80;;;;;;5062600;28;20380;-70
2021/04/04 01:20:00;;;;;;;;;;;5.00;88.70;;;;;;5090334;27;19916;-70
2021/04/04 01:22:36;;;;;;;;;;;5.10;88.50;;;;;;5080250;28;19924;-77
2021/04/04 01:25:06;;;;;;;;;;;5.20;88.90;;;;;;5074360;28;19977;-80
2021/04/04 01:27:47;;;;;;;;;;;5.20;88.20;;;;;;5091064;27;19927;-78
2021/04/04 01:30:13;;;;;;;;;;;5.20;87.80;;;;;;5076892;28;19969;-79
2021/04/04 01:32:39;;;;;;;;;;;5.30;88.00;;;;;;5075999;28;19924;-80
2021/04/04 01:35:06;;;;;;;;;;;5.30;87.70;;;;;;5062119;28;19924;-80
2021/04/04 01:37:32;;;;;;;;;;;5.30;89.10;;;;;;5075186;28;19927;-80
2021/04/04 01:39:58;;;;;;;;;;;5.30;89.00;;;;;;5078245;28;20269;-80
2021/04/04 01:42:26;;;;;;;;;;;5.30;90.30;;;;;;5090718;28;20052;-79
2021/04/04 01:44:53;;;;;;;;;;;5.30;89.80;;;;;;5074748;28;19927;-79
2021/04/04 01:47:22;;;;;;;;;;;5.30;90.30;;;;;;5074025;28;20060;-79
2021/04/04 01:49:48;;;;;;;;;;;5.30;90.30;;;;;;5089965;28;20429;-79
2021/04/04 01:52:14;;;;;;;;;;;5.30;90.30;;;;;;5074432;28;19966;-80
2021/04/04 01:54:40;;;;;;;;;;;5.30;90.40;;;;;;5071123;28;20011;-79
2021/04/04 01:57:05;;;;;;;;;;;5.30;91.00;;;;;;5074921;28;19920;-80
2021/04/04 01:59:32;;;;;;;;;;;5.30;91.10;;;;;;5085333;28;19981;-79
2021/04/04 02:01:57;;;;;;;;;;;5.30;91.40;;;;;;5077076;28;20629;-80
2021/04/04 02:04:23;;;;;;;;;;;5.20;91.60;;;;;;5077541;28;19993;-79
2021/04/04 02:06:49;;;;;;;;;;;5.20;91.90;;;;;;5085784;28;19930;-79
2021/04/04 02:09:17;;;;;;;;;;;5.20;92.20;;;;;;5073351;28;19928;-79
2021/04/04 02:11:43;;;;;;;;;;;5.20;92.20;;;;;;5074847;28;19921;-79
2021/04/04 02:14:09;;;;;;;;;;;5.20;92.60;;;;;;5074808;28;19921;-79
2021/04/04 02:16:35;;;;;;;;;;;5.20;92.80;;;;;;5072651;28;19939;-80
2021/04/04 02:19:04;;;;;;;;;;;5.20;93.30;;;;;;5069599;28;19920;-79
2021/04/04 02:21:29;;;;;;;;;;;5.20;93.40;;;;;;5073437;28;19917;-79
2021/04/04 02:23:57;;;;;;;;;;;5.20;93.70;;;;;;5086330;28;20277;-80
2021/04/04 02:26:25;;;;;;;;;;;5.10;94.20;;;;;;5075829;28;20070;-79
2021/04/04 02:28:52;;;;;;;;;;;5.10;94.30;;;;;;5085789;28;20356;-80
2021/04/04 02:31:20;;;;;;;;;;;5.20;93.80;;;;;;5074695;28;20447;-79
2021/04/04 02:33:50;;;;;;;;;;;5.10;94.40;;;;;;5073288;28;20020;-79
2021/04/04 02:36:16;;;;;;;;;;;5.10;94.70;;;;;;5074042;28;20008;-79
2021/04/04 02:38:45;;;;;;;;;;;5.10;95.20;;;;;;5059935;28;19999;-79
2021/04/04 02:41:13;;;;;;;;;;;5.10;95.20;;;;;;5073868;28;19920;-79
2021/04/04 02:43:39;;;;;;;;;;;5.10;95.70;;;;;;5076873;28;19939;-79
2021/04/04 02:46:06;;;;;;;;;;;5.10;95.40;;;;;;5074787;28;19920;-79
2021/04/04 02:48:38;;;;;;;;;;;5.10;95.80;;;;;;5056467;28;19920;-79
2021/04/04 02:51:06;;;;;;;;;;;5.10;96.10;;;;;;5077234;28;20770;-79
2021/04/04 02:53:33;;;;;;;;;;;5.00;96.40;;;;;;5074718;28;20342;-79
2021/04/04 02:55:59;;;;;;;;;;;5.10;96.60;;;;;;5073185;28;19921;-79
2021/04/04 02:58:25;;;;;;;;;;;5.10;96.80;;;;;;5074170;28;19916;-79
2021/04/04 03:00:52;;;;;;;;;;;5.10;96.80;;;;;;5076122;28;19916;-79
2021/04/04 03:03:17;;;;;;;;;;;5.00;96.60;;;;;;5092237;27;19927;-79
2021/04/04 03:05:43;;;;;;;;;;;5.10;97.40;;;;;;5095854;27;19920;-79
2021/04/04 03:08:08;;;;;;;;;;;5.00;97.60;;;;;;5080397;28;19985;-80
2021/04/04 03:10:36;;;;;;;;;;;5.10;97.70;;;;;;5088488;28;19920;-79
2021/04/04 03:13:04;;;;;;;;;;;5.00;98.50;;;;;;5089282;28;19993;-79
2021/04/04 03:15:30;;;;;;;;;;;5.00;98.30;;;;;;5091829;27;19928;-79
2021/04/04 03:17:58;;;;;;;;;;;5.00;99.20;;;;;;5093592;27;19931;-79
2021/04/04 03:20:26;;;;;;;;;;;5.00;99.60;;;;;;5080591;28;19920;-79
2021/04/04 03:22:51;;;;;;;;;;;5.00;99.90;;;;;;5093137;27;19916;-79
2021/04/04 03:25:17;;;;;;;;;;;5.00;99.10;;;;;;5089060;28;20011;-79
2021/04/04 03:27:43;;;;;;;;;;;5.10;98.60;;;;;;5076351;28;19917;-79
2021/04/04 03:30:09;;;;;;;;;;;5.10;98.80;;;;;;5087909;28;19920;-79
2021/04/04 03:32:35;;;;;;;;;;;5.10;97.30;;;;;;5078201;28;19912;-79
2021/04/04 03:35:01;;;;;;;;;;;5.10;96.60;;;;;;5077341;28;19958;-79
2021/04/04 03:37:30;;;;;;;;;;;5.10;97.50;;;;;;5094508;27;19923;-79
2021/04/04 03:39:56;;;;;;;;;;;5.10;98.30;;;;;;5076534;28;20023;-79
2021/04/04 03:42:21;;;;;;;;;;;5.10;97.60;;;;;;5077346;28;20003;-79
2021/04/04 03:44:47;;;;;;;;;;;5.10;96.80;;;;;;5079456;28;20058;-80
2021/04/04 03:47:15;;;;;;;;;;;5.10;97.60;;;;;;5075590;28;19925;-80
2021/04/04 03:49:40;;;;;;;;;;;5.00;96.00;;;;;;5087928;28;19916;-79
2021/04/04 03:52:06;;;;;;;;;;;5.00;95.20;;;;;;5076932;28;20316;-79
2021/04/04 03:54:32;;;;;;;;;;;4.90;95.80;;;;;;5078713;28;20334;-79
2021/04/04 03:56:57;;;;;;;;;;;4.80;96.90;;;;;;5076404;28;20235;-79
2021/04/04 03:59:23;;;;;;;;;;;4.70;96.70;;;;;;5067042;28;19917;-79
2021/04/04 04:01:51;;;;;;;;;;;4.70;97.10;;;;;;5076562;28;19947;-78
2021/04/04 04:04:18;;;;;;;;;;;4.70;99.90;;;;;;5074693;28;20401;-79
2021/04/04 04:06:46;;;;;;;;;;;4.70;99.00;;;;;;5075875;28;20319;-79
2021/04/04 04:09:14;;;;;;;;;;;4.60;99.90;;;;;;5087788;28;19966;-79
2021/04/04 04:11:40;;;;;;;;;;;4.60;99.90;;;;;;5079423;28;19920;-79
2021/04/04 04:14:06;;;;;;;;;;;4.50;99.90;;;;;;5077103;28;19931;-77
2021/04/04 04:16:32;;;;;;;;;;;4.40;99.90;;;;;;5075700;28;20018;-77
2021/04/04 04:18:58;;;;;;;;;;;4.40;99.90;;;;;;5078853;28;20368;-77
2021/04/04 04:21:23;;;;;;;;;;;4.40;99.90;;;;;;5075120;28;19927;-79
2021/04/04 04:23:49;;;;;;;;;;;4.30;99.90;;;;;;5076331;28;19931;-79
2021/04/04 04:26:15;;;;;;;;;;;4.30;98.50;;;;;;5066377;28;19969;-79
2021/04/04 04:28:41;;;;;;;;;;;4.20;97.90;;;;;;5086335;28;19947;-79
2021/04/04 04:31:09;;;;;;;;;;;4.20;97.10;;;;;;5077490;28;19974;-77
2021/04/04 04:33:34;;;;;;;;;;;4.20;96.50;;;;;;5075160;28;19932;-79
2021/04/04 04:36:00;;;;;;;;;;;4.20;96.10;;;;;;5079411;28;20288;-79
2021/04/04 04:38:26;;;;;;;;;;;4.20;96.70;;;;;;5074780;28;19920;-79
2021/04/04 04:40:54;;;;;;;;;;;4.10;99.90;;;;;;5091310;27;20038;-78
2021/04/04 04:43:19;;;;;;;;;;;4.10;99.90;;;;;;5075127;28;19931;-79
2021/04/04 04:45:45;;;;;;;;;;;4.00;99.90;;;;;;5078779;28;19916;-77
2021/04/04 04:48:10;;;;;;;;;;;4.00;99.90;;;;;;5074161;28;19919;-79
2021/04/04 04:50:36;;;;;;;;;;;4.00;99.90;;;;;;5075059;28;19916;-77
2021/04/04 04:53:04;;;;;;;;;;;4.00;99.90;;;;;;5079256;28;19916;-79
2021/04/04 04:55:31;;;;;;;;;;;4.00;99.90;;;;;;5075937;28;20273;-77
2021/04/04 04:57:57;;;;;;;;;;;4.00;99.90;;;;;;5086644;28;19927;-79
2021/04/04 05:00:23;;;;;;;;;;;4.10;99.90;;;;;;5086037;28;19920;-79
2021/04/04 05:02:53;;;;;;;;;;;4.00;99.90;;;;;;5087275;28;19931;-79
2021/04/04 05:05:19;;;;;;;;;;;4.10;99.90;;;;;;5061615;28;20007;-78
2021/04/04 05:07:45;;;;;;;;;;;4.00;99.90;;;;;;5074323;28;19917;-79
2021/04/04 05:10:11;;;;;;;;;;;4.10;99.90;;;;;;5076146;28;19931;-77
2021/04/04 05:12:45;;;;;;;;;;;4.10;99.90;;;;;;5108740;27;20410;-79
2021/04/04 05:15:11;;;;;;;;;;;4.20;99.90;;;;;;5074302;28;19936;-79
2021/04/04 05:17:37;;;;;;;;;;;4.30;99.90;;;;;;5076012;28;19923;-79
2021/04/04 05:20:05;;;;;;;;;;;4.30;99.90;;;;;;5061429;28;19920;-79
2021/04/04 05:22:31;;;;;;;;;;;4.40;99.90;;;;;;5074515;28;19916;-77
2021/04/04 05:24:59;;;;;;;;;;;4.50;99.90;;;;;;5077635;28;19945;-79
2021/04/04 05:27:24;;;;;;;;;;;4.50;99.90;;;;;;5075181;28;19924;-79
2021/04/04 05:29:50;;;;;;;;;;;4.50;99.90;;;;;;5060143;28;20269;-79
2021/04/04 05:32:16;;;;;;;;;;;4.60;99.90;;;;;;5074933;28;19916;-79
2021/04/04 05:34:41;;;;;;;;;;;4.70;99.90;;;;;;5075165;28;19988;-79
2021/04/04 05:37:07;;;;;;;;;;;4.70;99.90;;;;;;5077255;28;19962;-79
2021/04/04 05:39:34;;;;;;;;;;;4.80;99.90;;;;;;5074267;28;20011;-79
2021/04/04 05:42:05;;;;;;;;;;;4.80;99.90;;;;;;5077304;28;19921;-77
2021/04/04 05:44:52;;;;;;;;;;;4.90;99.90;;;;;;5061394;28;19920;-79
2021/04/04 05:47:22;;;;;;;;;;;4.90;99.90;;;;;;5078029;28;19930;-79
2021/04/04 05:50:00;;;;;;;;;;;5.00;99.90;;;;;;5074655;28;19916;-79
2021/04/04 05:52:31;;;;;;;;;;;5.10;99.90;;;;;;5085877;28;20009;-79
2021/04/04 05:55:09;;;;;;;;;;;5.10;99.90;;;;;;5074658;28;19935;-80
2021/04/04 05:57:35;;;;;;;;;;;5.20;99.90;;;;;;5074640;28;19927;-79
2021/04/04 06:00:01;;;;;;;;;;;5.20;99.90;;;;;;5074848;28;19947;-79
2021/04/04 06:02:45;;;;;;;;;;;5.30;99.90;;;;;;5074178;28;19920;-79
2021/04/04 06:05:28;;;;;;;;;;;5.40;99.90;;;;;;5075315;28;20007;-79
2021/04/04 06:08:14;;;;;;;;;;;5.40;99.90;;;;;;5074584;28;19931;-79
2021/04/04 06:10:40;;;;;;;;;;;5.50;99.90;;;;;;5090132;28;19969;-79
2021/04/04 06:13:06;;;;;;;;;;;5.50;99.90;;;;;;5075310;28;20345;-80
2021/04/04 06:15:36;;;;;;;;;;;5.60;99.90;;;;;;5073404;28;19932;-79
2021/04/04 06:18:10;;;;;;;;;;;5.60;99.90;;;;;;5075247;28;19942;-79
2021/04/04 06:20:41;;;;;;;;;;;5.70;99.90;;;;;;5074369;28;20052;-80
2021/04/04 06:23:19;;;;;;;;;;;5.70;99.90;;;;;;5077271;28;19916;-80
2021/04/04 06:25:56;;;;;;;;;;;5.70;99.90;;;;;;5089559;28;19948;-79
2021/04/04 06:28:40;;;;;;;;;;;5.80;99.90;;;;;;5074260;28;19923;-80
2021/04/04 06:31:16;;;;;;;;;;;5.90;99.90;;;;;;5092171;28;19921;-80
2021/04/04 06:33:42;;;;;;;;;;;6.00;99.90;;;;;;5076750;28;19916;-79
2021/04/04 06:36:13;;;;;;;;;;;6.10;99.90;;;;;;5075364;28;19927;-80
2021/04/04 06:38:41;;;;;;;;;;;6.10;99.20;;;;;;5081960;28;19977;-80
2021/04/04 06:41:07;;;;;;;;;;;6.10;99.30;;;;;;5079301;28;19919;-79
2021/04/04 06:43:41;;;;;;;;;;;6.10;98.40;;;;;;5078317;28;19920;-79
2021/04/04 06:46:22;;;;;;;;;;;6.20;99.50;;;;;;5076483;28;19923;-79
2021/04/04 06:49:06;;;;;;;;;;;6.20;98.10;;;;;;5078445;28;19962;-79
2021/04/04 06:51:53;;;;;;;;;;;6.30;96.70;;;;;;5079029;28;20251;-80
2021/04/04 06:54:37;;;;;;;;;;;6.30;97.30;;;;;;5078738;28;20487;-79
2021/04/04 06:57:03;;;;;;;;;;;6.30;99.00;;;;;;5077388;28;19927;-79
2021/04/04 06:59:38;;;;;;;;;;;6.40;97.40;;;;;;5076783;28;19916;-79
2021/04/04 07:02:07;;;;;;;;;;;6.40;96.80;;;;;;5095284;27;20024;-79
2021/04/04 07:04:54;;;;;;;;;;;6.50;98.10;;;;;;5080900;28;19976;-79
2021/04/04 07:07:26;;;;;;;;;;;6.50;97.70;;;;;;5077230;28;20006;-79
2021/04/04 07:09:54;;;;;;;;;;;6.60;96.80;;;;;;5093442;27;19916;-79
2021/04/04 07:12:49;;;;;;;;;;;6.60;96.80;;;;;;5076699;28;19916;-80
2021/04/04 07:15:33;;;;;;;;;;;6.60;96.50;;;;;;5025499;28;20019;-79
2021/04/04 07:18:07;;;;;;;;;;;6.60;96.60;;;;;;5077596;28;19962;-80
2021/04/04 07:20:39;;;;;;;;;;;6.60;95.40;;;;;;5076845;28;19927;-79
2021/04/04 07:23:13;;;;;;;;;;;6.60;96.60;;;;;;5076495;28;19997;-79
2021/04/04 07:25:52;;;;;;;;;;;6.60;96.80;;;;;;5078092;28;19916;-79
2021/04/04 07:28:36;;;;;;;;;;;6.60;96.10;;;;;;5110305;27;19970;-79
2021/04/04 07:31:05;;;;;;;;;;;6.70;95.20;;;;;;5077742;28;20007;-79
2021/04/04 07:33:47;;;;;;;;;;;6.70;95.70;;;;;;5097366;27;19931;-79
2021/04/04 07:36:14;;;;;;;;;;;6.80;95.50;;;;;;5076672;28;19924;-79
2021/04/04 07:38:43;;;;;;;;;;;6.90;94.20;;;;;;5079850;28;20620;-79
2021/04/04 07:41:09;;;;;;;;;;;7.00;94.30;;;;;;5076663;28;19916;-79
2021/04/04 07:43:57;;;;;;;;;;;7.10;94.80;;;;;;5076712;28;19928;-79
2021/04/04 07:46:24;;;;;;;;;;;7.20;94.50;;;;;;5084186;28;19931;-79
2021/04/04 07:49:06;;;;;;;;;;;7.40;96.30;;;;;;5083433;28;20870;-78
2021/04/04 07:51:33;;;;;;;;;;;7.50;94.80;;;;;;5078659;28;19921;-79
2021/04/04 07:54:06;;;;;;;;;;;7.60;93.80;;;;;;5079525;28;20643;-79
2021/04/04 07:56:48;;;;;;;;;;;7.80;93.10;;;;;;5075602;28;19992;-79
2021/04/04 07:59:55;;;;;;;;;;;7.90;92.80;;;;;;5078478;28;19920;-79
2021/04/04 08:02:23;;;;;;;;;;;8.10;90.90;;;;;;5038535;28;19920;-80
2021/04/04 08:04:52;;;;;;;;;;;8.20;88.70;;;;;;5037833;28;19955;-80
2021/04/04 08:07:19;;;;;;;;;;;8.20;85.20;;;;;;5038577;28;19951;-80
2021/04/04 08:10:09;;;;;;;;;;;8.30;84.30;;;;;;5041110;28;19920;-81
2021/04/04 08:12:52;;;;;;;;;;;8.30;82.00;;;;;;5045405;28;20014;-80
2021/04/04 08:15:21;;;;;;;;;;;8.30;82.10;;;;;;5056507;28;19928;-80
2021/04/04 08:17:52;;;;;;;;;;;8.40;80.90;;;;;;5040694;28;19921;-80
2021/04/04 08:20:23;;;;;;;;;;;8.30;80.50;;;;;;5029284;28;19967;-80
2021/04/04 08:22:51;;;;;;;;;;;8.40;80.40;;;;;;5038332;28;20310;-80
2021/04/04 08:25:17;;;;;;;;;;;8.40;80.00;;;;;;5037958;28;20003;-80
2021/04/04 08:27:44;;;;;;;;;;;8.40;79.90;;;;;;5038111;28;19964;-80
2021/04/04 08:30:10;;;;;;;;;;;8.40;77.20;;;;;;5037342;28;19916;-80
2021/04/04 08:32:48;;;;;;;;;;;8.50;77.70;;;;;;5062332;28;19920;-80
2021/04/04 08:35:17;;;;;;;;;;;8.60;81.80;;;;;;5075745;28;19920;-80
2021/04/04 08:37:53;;;;;;;;;;;8.70;81.00;;;;;;5078392;28;19931;-79
2021/04/04 08:40:18;;;;;;;;;;;8.70;80.60;;;;;;5093184;27;19971;-80
2021/04/04 08:42:46;;;;;;;;;;;8.90;82.80;;;;;;5076819;28;19927;-80
2021/04/04 08:45:16;;;;;;;;;;;9.00;83.00;;;;;;5075552;28;19920;-80
2021/04/04 08:47:42;;;;;;;;;;;9.10;83.60;;;;;;5061845;28;20349;-80
2021/04/04 08:50:10;;;;;;;;;;;9.20;82.20;;;;;;5076122;28;19965;-80
2021/04/04 08:52:45;;;;;;;;;;;9.30;78.80;;;;;;5081903;28;20027;-80
2021/04/04 08:55:12;;;;;;;;;;;9.30;79.00;;;;;;5076233;27;19920;-80
2021/04/04 08:57:41;;;;;;;;;;;9.40;79.80;;;;;;5076342;28;19916;-80
2021/04/04 09:00:10;;;;;;;;;;;9.50;80.10;;;;;;5054803;28;19920;-80
2021/04/04 09:02:43;;;;;;;;;;;9.50;79.80;;;;;;5090401;27;19920;-78
2021/04/04 09:05:08;;;;;;;;;;;9.50;81.60;;;;;;5076698;28;19912;-78
2021/04/04 09:07:40;;;;;;;;;;;9.60;82.70;;;;;;5061991;28;19919;-78
2021/04/04 09:10:10;;;;;;;;;;;9.70;81.20;;;;;;5091036;27;19931;-78
2021/04/04 09:12:38;;;;;;;;;;;9.70;78.40;;;;;;5076930;28;19919;-79
2021/04/04 09:15:07;;;;;;;;;;;9.80;80.30;;;;;;5072633;28;19939;-78
2021/04/04 09:17:32;;;;;;;;;;;9.70;79.80;;;;;;5086138;28;20312;-78
2021/04/04 09:20:01;;;;;;;;;;;9.80;80.60;;;;;;5076341;28;19920;-78
2021/04/04 09:22:26;;;;;;;;;;;9.80;81.00;;;;;;5075560;28;19995;-77
2021/04/04 09:25:07;;;;;;;;;;;9.90;78.40;;;;;;5075302;28;20010;-78
2021/04/04 09:27:37;;;;;;;;;;;9.90;77.90;;;;;;5076987;28;19970;-78
2021/04/04 09:30:10;;;;;;;;;;;9.90;77.20;;;;;;5074838;28;19917;-78
2021/04/04 09:32:42;;;;;;;;;;;10.00;77.60;;;;;;5074824;28;19916;-78
2021/04/04 09:35:12;;;;;;;;;;;9.90;78.00;;;;;;5075753;28;19970;-78
2021/04/04 09:37:38;;;;;;;;;;;9.90;77.70;;;;;;5072948;28;20350;-79
2021/04/04 09:40:04;;;;;;;;;;;9.90;79.40;;;;;;5075283;28;19926;-79
2021/04/04 09:42:30;;;;;;;;;;;10.00;78.40;;;;;;5107933;27;20345;-78
2021/04/04 09:45:11;;;;;;;;;;;10.00;76.60;;;;;;5086525;28;19958;-78
2021/04/04 09:47:36;;;;;;;;;;;10.10;76.10;;;;;;5075087;28;19916;-80
2021/04/04 09:50:02;;;;;;;;;;;10.10;77.50;;;;;;5075997;28;19926;-79
2021/04/04 09:52:28;;;;;;;;;;;10.20;77.50;;;;;;5081389;28;20043;-80
2021/04/04 09:54:54;;;;;;;;;;;10.10;75.40;;;;;;5073923;28;19931;-80
2021/04/04 09:57:19;;;;;;;;;;;10.40;78.00;;;;;;5074799;28;19924;-80
2021/04/04 09:59:45;;;;;;;;;;;10.50;78.50;;;;;;5078415;28;19921;-80
2021/04/04 10:02:10;;;;;;;;;;;10.70;77.10;;;;;;5076059;28;20329;-79
2021/04/04 10:04:47;;;;;;;;;;;10.80;75.00;;;;;;5074600;28;20681;-80
2021/04/04 10:07:13;;;;;;;;;;;10.70;73.70;;;;;;5074000;28;19919;-78
2021/04/04 10:09:38;;;;;;;;;;;10.80;73.00;;;;;;5073794;28;19935;-78
2021/04/04 10:12:07;;;;;;;;;;;10.30;71.10;;;;;;5075566;28;19919;-78
2021/04/04 10:14:32;;;;;;;;;;;10.50;75.00;;;;;;5078838;28;19920;-78
2021/04/04 10:17:10;;;;;;;;;;;10.50;75.20;;;;;;5078831;28;21839;-77
2021/04/04 10:19:52;;;;;;;;;;;10.20;73.50;;;;;;5079474;28;19930;-77
2021/04/04 10:22:17;;;;;;;;;;;10.10;72.80;;;;;;5090834;28;19921;-78
2021/04/04 10:24:45;;;;;;;;;;;10.00;75.10;;;;;;5090288;28;20434;-78
2021/04/04 10:27:26;;;;;;;;;;;10.10;76.20;;;;;;5091122;28;20011;-78
2021/04/04 10:30:04;;;;;;;;;;;10.10;76.90;;;;;;5078357;28;20062;-77
2021/04/04 10:32:30;;;;;;;;;;;10.00;76.50;;;;;;5079618;28;20057;-77
2021/04/04 10:34:55;;;;;;;;;;;10.10;72.80;;;;;;5077166;28;20030;-77
2021/04/04 10:37:23;;;;;;;;;;;10.20;74.80;;;;;;5090041;28;20747;-78
2021/04/04 10:40:04;;;;;;;;;;;10.10;74.30;;;;;;5080623;28;20038;-78
2021/04/04 10:42:29;;;;;;;;;;;10.20;74.00;;;;;;5078389;28;19986;-78
2021/04/04 10:45:07;;;;;;;;;;;10.30;72.60;;;;;;5078033;28;20796;-78
2021/04/04 10:47:32;;;;;;;;;;;10.30;72.50;;;;;;5077224;28;19923;-78
2021/04/04 10:49:58;;;;;;;;;;;10.20;67.80;;;;;;5078095;28;20003;-79
2021/04/04 10:52:23;;;;;;;;;;;10.00;67.30;;;;;;5077670;28;19956;-81
2021/04/04 10:54:49;;;;;;;;;;;9.80;66.80;;;;;;5077343;28;19926;-80
2021/04/04 10:57:15;;;;;;;;;;;9.80;67.60;;;;;;5077139;28;19921;-80
2021/04/04 10:59:43;;;;;;;;;;;9.80;69.00;;;;;;5076205;28;19917;-81
2021/04/04 11:02:11;;;;;;;;;;;9.70;67.90;;;;;;5078110;28;20339;-79
2021/04/04 11:04:40;;;;;;;;;;;9.80;70.50;;;;;;5078049;28;19939;-79
2021/04/04 11:07:05;;;;;;;;;;;9.80;68.50;;;;;;5080685;28;21828;-78
2021/04/04 11:09:31;;;;;;;;;;;9.70;68.90;;;;;;5077214;28;19916;-78
2021/04/04 11:11:59;;;;;;;;;;;9.70;68.00;;;;;;5084457;28;20047;-78
2021/04/04 11:14:27;;;;;;;;;;;9.70;68.60;;;;;;5077457;28;20384;-81
2021/04/04 11:16:53;;;;;;;;;;;9.70;70.20;;;;;;5083109;28;19957;-81
2021/04/04 11:19:24;;;;;;;;;;;9.70;68.90;;;;;;5086680;28;19960;-80
2021/04/04 11:21:49;;;;;;;;;;;10.00;69.40;;;;;;5083112;28;19916;-80
2021/04/04 11:24:19;;;;;;;;;;;10.20;67.00;;;;;;5092300;28;20940;-81
2021/04/04 11:26:58;;;;;;;;;;;10.30;67.10;;;;;;5076237;28;19974;-80
2021/04/04 11:29:24;;;;;;;;;;;10.30;65.70;;;;;;5075674;28;19952;-81
2021/04/04 11:31:51;;;;;;;;;;;10.60;65.10;;;;;;5077296;28;20023;-80
2021/04/04 11:34:38;;;;;;;;;;;10.40;64.30;;;;;;5076026;28;19971;-80
2021/04/04 11:37:08;;;;;;;;;;;10.70;66.20;;;;;;5076677;28;19923;-79
2021/04/04 11:39:36;;;;;;;;;;;10.90;63.80;;;;;;5075916;28;19920;-80
2021/04/04 11:42:04;;;;;;;;;;;10.90;63.00;;;;;;5075296;28;19917;-80
2021/04/04 11:44:33;;;;;;;;;;;11.00;63.60;;;;;;5077839;28;19916;-80
2021/04/04 11:46:59;;;;;;;;;;;10.80;62.70;;;;;;5076177;28;19929;-79
2021/04/04 11:49:28;;;;;;;;;;;10.90;63.20;;;;;;5091134;28;19924;-80
2021/04/04 11:51:57;;;;;;;;;;;10.90;63.80;;;;;;5075515;28;20415;-84
2021/04/04 11:54:41;;;;;;;;;;;10.90;62.20;;;;;;5108642;27;19975;-81
2021/04/04 11:57:06;;;;;;;;;;;10.90;63.40;;;;;;5081942;28;19963;-79
2021/04/04 11:59:32;;;;;;;;;;;11.10;61.50;;;;;;5091406;28;19959;-81
2021/04/04 12:01:57;;;;;;;;;;;11.10;61.10;;;;;;5083842;28;19924;-80
2021/04/04 12:04:46;;;;;;;;;;;11.20;60.70;;;;;;5090494;28;20230;-80
2021/04/04 12:07:15;;;;;;;;;;;11.50;62.40;;;;;;5090852;28;20352;-80
2021/04/04 12:09:44;;;;;;;;;;;11.60;60.60;;;;;;5089836;28;19919;-81
2021/04/04 12:12:12;;;;;;;;;;;11.50;60.20;;;;;;5126108;27;19916;-80
2021/04/04 12:14:56;;;;;;;;;;;11.60;60.00;;;;;;5088176;28;19917;-80
2021/04/04 12:17:24;;;;;;;;;;;11.70;61.10;;;;;;5042003;28;1366485;-80
2021/04/04 12:19:50;;;;;;;;;;;11.90;59.00;;;;;;5090342;28;19916;-81
2021/04/04 12:22:16;;;;;;;;;;;11.70;57.50;;;;;;5095456;28;19960;-81
2021/04/04 12:24:45;;;;;;;;;;;11.60;58.20;;;;;;5091953;28;19919;-82
2021/04/04 12:27:11;;;;;;;;;;;11.80;59.00;;;;;;5094213;28;19981;-81
2021/04/04 12:29:43;;;;;;;;;;;11.90;59.00;;;;;;5091363;28;20324;-81
2021/04/04 12:32:08;;;;;;;;;;;12.30;58.50;;;;;;5091722;28;20348;-81
2021/04/04 12:34:41;;;;;;;;;;;12.30;56.60;;;;;;5092946;28;19962;-80
2021/04/04 12:37:13;;;;;;;;;;;12.10;57.00;;;;;;5089833;28;20352;-81
2021/04/04 12:39:41;;;;;;;;;;;12.20;62.30;;;;;;5094068;28;19943;-81
2021/04/04 12:42:12;;;;;;;;;;;12.20;56.60;;;;;;5094807;28;19912;-81
2021/04/04 12:44:41;;;;;;;;;;;12.40;57.70;;;;;;5091851;28;20282;-81
2021/04/04 12:47:10;;;;;;;;;;;12.50;55.60;;;;;;5092662;28;19916;-81
2021/04/04 12:49:35;;;;;;;;;;;12.80;57.90;;;;;;5086537;28;20026;-81
2021/04/04 12:52:05;;;;;;;;;;;12.70;57.10;;;;;;5091849;28;20054;-82
2021/04/04 12:54:33;;;;;;;;;;;12.90;56.80;;;;;;5090751;28;19924;-81
2021/04/04 12:57:01;;;;;;;;;;;13.10;54.40;;;;;;5091595;28;19920;-81
2021/04/04 12:59:26;;;;;;;;;;;13.20;55.60;;;;;;5090861;28;19916;-83
2021/04/04 13:01:54;;;;;;;;;;;13.20;54.20;;;;;;5094750;28;19926;-82
2021/04/04 13:04:20;;;;;;;;;;;13.10;54.80;;;;;;5093985;28;19912;-83
2021/04/04 13:06:46;;;;;;;;;;;13.50;53.80;;;;;;5091613;28;20015;-81
2021/04/04 13:09:12;;;;;;;;;;;13.70;54.60;;;;;;5087634;28;20010;-82
2021/04/04 13:11:43;;;;;;;;;;;14.20;53.00;;;;;;5091359;28;19919;-80
2021/04/04 13:14:13;;;;;;;;;;;14.00;52.00;;;;;;5102702;27;19939;-81
2021/04/04 13:16:39;;;;;;;;;;;14.00;51.70;;;;;;5089521;28;20586;-81
2021/04/04 13:19:06;;;;;;;;;;;14.10;53.10;;;;;;5090337;28;19912;-81
2021/04/04 13:21:35;;;;;;;;;;;14.10;51.40;;;;;;5086977;28;20532;-81
2021/04/04 13:24:01;;;;;;;;;;;14.30;52.70;;;;;;5091023;28;19920;-81
2021/04/04 13:26:29;;;;;;;;;;;14.50;51.40;;;;;;5085578;28;20003;-81
2021/04/04 13:28:58;;;;;;;;;;;14.70;53.10;;;;;;5094058;28;19912;-80
2021/04/04 13:31:27;;;;;;;;;;;14.30;52.40;;;;;;5091927;28;19946;-80
2021/04/04 13:34:09;;;;;;;;;;;14.40;53.10;;;;;;5092932;28;19920;-80
2021/04/04 13:36:35;;;;;;;;;;;14.70;51.40;;;;;;5080169;28;19927;-81
2021/04/04 13:39:01;;;;;;;;;;;14.30;50.90;;;;;;5089845;28;19915;-81
2021/04/04 13:41:31;;;;;;;;;;;14.70;50.50;;;;;;5092446;28;19917;-80
2021/04/04 13:43:57;;;;;;;;;;;14.60;51.20;;;;;;5090656;28;19927;-81
2021/04/04 13:46:29;;;;;;;;;;;14.60;50.30;;;;;;5092193;28;19916;-80
2021/04/04 13:48:55;;;;;;;;;;;14.70;52.40;;;;;;5089834;28;19920;-81
2021/04/04 13:51:21;;;;;;;;;;;14.90;53.00;;;;;;5089672;28;20380;-81
2021/04/04 13:53:49;;;;;;;;;;;14.40;52.10;;;;;;5089741;28;19916;-80
2021/04/04 13:56:15;;;;;;;;;;;13.50;50.00;;;;;;5091833;28;20038;-81
2021/04/04 13:58:46;;;;;;;;;;;12.90;51.30;;;;;;5087743;28;20003;-81
2021/04/04 14:01:27;;;;;;;;;;;12.70;52.70;;;;;;5110409;28;20447;-80
2021/04/04 14:03:53;;;;;;;;;;;12.50;54.50;;;;;;5089536;28;19919;-80
2021/04/04 14:06:18;;;;;;;;;;;12.40;53.80;;;;;;5093499;28;19920;-80
2021/04/04 14:08:44;;;;;;;;;;;12.60;56.90;;;;;;5105683;28;20003;-81
2021/04/04 14:11:10;;;;;;;;;;;12.70;54.30;;;;;;5073212;28;19931;-81
2021/04/04 14:13:36;;;;;;;;;;;12.80;54.00;;;;;;5087885;28;19920;-81
2021/04/04 14:16:02;;;;;;;;;;;12.50;52.70;;;;;;5088766;28;19930;-80
2021/04/04 14:18:37;;;;;;;;;;;12.10;53.90;;;;;;5091153;28;19912;-80
2021/04/04 14:21:03;;;;;;;;;;;12.30;55.60;;;;;;5091980;28;19957;-80
2021/04/04 14:23:31;;;;;;;;;;;12.40;56.40;;;;;;5091812;28;19920;-81
2021/04/04 14:25:57;;;;;;;;;;;12.40;56.10;;;;;;5084849;28;20015;-80
2021/04/04 14:28:23;;;;;;;;;;;12.40;53.60;;;;;;5090167;28;20352;-80
2021/04/04 14:30:48;;;;;;;;;;;12.40;54.90;;;;;;5089175;28;19911;-80
2021/04/04 14:33:14;;;;;;;;;;;12.40;55.60;;;;;;5089393;28;20323;-80
2021/04/04 14:35:39;;;;;;;;;;;12.30;54.80;;;;;;5091196;28;19967;-80
2021/04/04 14:38:08;;;;;;;;;;;12.00;54.40;;;;;;5089862;28;19917;-80